createdAt,value
2019-02-21T00:00:35.320Z,79.00
2019-02-21T00:03:04.176Z,79.00
2019-02-21T00:05:33.252Z,78.70
2019-02-21T00:08:02.112Z,78.10
2019-02-21T00:10:30.955Z,78.40
2019-02-21T00:12:59.855Z,78.80
2019-02-21T00:15:28.704Z,79.00
2019-02-21T00:17:57.572Z,79.50
2019-02-21T00:20:26.453Z,79.30
2019-02-21T00:22:55.317Z,79.40
2019-02-21T00:25:24.164Z,79.70
2019-02-21T00:27:53.067Z,80.00
2019-02-21T00:30:21.935Z,79.80
2019-02-21T00:32:50.780Z,79.70
2019-02-21T00:35:19.968Z,79.70
2019-02-21T00:37:48.789Z,80.00
2019-02-21T00:40:17.690Z,79.80
2019-02-21T00:42:46.564Z,79.60
2019-02-21T00:45:15.433Z,79.70
2019-02-21T00:47:44.295Z,79.50
2019-02-21T00:50:13.176Z,79.60
2019-02-21T00:52:42.023Z,79.70
2019-02-21T00:55:10.856Z,80.10
2019-02-21T00:57:39.776Z,80.10
2019-02-21T01:00:12.008Z,80.20
2019-02-21T01:02:40.869Z,80.30
2019-02-21T01:05:09.760Z,80.30
2019-02-21T01:07:38.606Z,80.30
2019-02-21T01:10:08.253Z,80.70
2019-02-21T01:12:37.134Z,80.90
2019-02-21T01:15:08.605Z,80.70
2019-02-21T01:17:37.473Z,80.60
2019-02-21T01:20:07.095Z,80.90
2019-02-21T01:22:35.955Z,81.30
2019-02-21T01:25:06.495Z,81.20
2019-02-21T01:27:35.384Z,81.20
2019-02-21T01:30:04.934Z,80.70
2019-02-21T01:32:33.801Z,80.90
2019-02-21T01:35:03.031Z,80.70
2019-02-21T01:37:31.917Z,80.40
2019-02-21T01:40:00.771Z,80.20
2019-02-21T01:42:29.721Z,80.20
2019-02-21T01:44:58.567Z,80.60
2019-02-21T01:47:27.599Z,80.70
2019-02-21T01:49:56.557Z,81.30
2019-02-21T01:52:25.434Z,81.40
2019-02-21T01:54:54.267Z,81.60
2019-02-21T01:57:23.167Z,81.80
2019-02-21T01:59:52.004Z,81.70
2019-02-21T02:02:20.903Z,81.10
2019-02-21T02:04:49.759Z,81.10
2019-02-21T02:07:18.611Z,81.20
2019-02-21T02:09:47.498Z,80.50
2019-02-21T02:12:16.347Z,80.40
2019-02-21T02:14:45.187Z,80.70
2019-02-21T02:17:14.090Z,81.30
2019-02-21T02:19:42.950Z,80.90
2019-02-21T02:22:11.773Z,80.60
2019-02-21T02:24:40.700Z,80.40
2019-02-21T02:27:09.560Z,80.40
2019-02-21T02:29:38.390Z,81.10
2019-02-21T02:32:09.532Z,81.30
2019-02-21T02:34:37.782Z,81.50
2019-02-21T02:37:06.623Z,81.30
2019-02-21T02:39:35.511Z,81.70
2019-02-21T02:42:04.363Z,81.50
2019-02-21T02:44:33.221Z,81.40
2019-02-21T02:47:02.100Z,81.70
2019-02-21T02:49:30.950Z,81.90
2019-02-21T02:51:59.776Z,81.60
2019-02-21T02:54:28.733Z,81.90
2019-02-21T02:56:57.640Z,81.70
2019-02-21T02:59:26.470Z,81.20
2019-02-21T03:01:55.374Z,81.10
2019-02-21T03:04:24.282Z,81.70
2019-02-21T03:06:53.185Z,82.20
2019-02-21T03:09:22.111Z,82.10
2019-02-21T03:11:51.919Z,82.00
2019-02-21T03:14:21.115Z,81.90
2019-02-21T03:16:49.985Z,81.60
2019-02-21T03:19:18.836Z,81.80
2019-02-21T03:21:47.691Z,81.90
2019-02-21T03:24:16.566Z,81.80
2019-02-21T03:26:45.422Z,82.00
2019-02-21T03:29:14.260Z,82.20
2019-02-21T03:31:54.320Z,82.10
2019-02-21T03:34:13.690Z,82.00
2019-02-21T03:36:42.534Z,81.80
2019-02-21T03:39:11.445Z,81.40
2019-02-21T03:41:40.602Z,81.50
2019-02-21T03:44:09.461Z,81.00
2019-02-21T03:46:38.352Z,81.00
2019-02-21T03:49:07.195Z,80.50
2019-02-21T03:51:36.033Z,80.80
2019-02-21T03:54:04.948Z,81.40
2019-02-21T03:56:33.808Z,81.20
2019-02-21T03:59:02.664Z,81.70
2019-02-21T04:01:31.584Z,82.10
2019-02-21T04:04:00.421Z,81.90
2019-02-21T04:06:29.262Z,81.60
2019-02-21T04:08:58.145Z,81.90
2019-02-21T04:11:27.004Z,82.30
2019-02-21T04:13:55.854Z,82.20
2019-02-21T04:16:24.749Z,82.20
2019-02-21T04:18:53.602Z,82.40
2019-02-21T04:21:22.442Z,82.60
2019-02-21T04:23:51.352Z,82.50
2019-02-21T04:26:20.181Z,82.60
2019-02-21T04:28:49.030Z,83.00
2019-02-21T04:31:17.929Z,82.50
2019-02-21T04:33:46.775Z,82.40
2019-02-21T04:36:15.619Z,82.30
2019-02-21T04:38:44.528Z,82.40
2019-02-21T04:41:13.375Z,82.30
2019-02-21T04:43:43.120Z,82.30
2019-02-21T04:46:12.002Z,82.40
2019-02-21T04:48:40.858Z,82.30
2019-02-21T04:51:09.711Z,81.70
2019-02-21T04:53:38.581Z,81.60
2019-02-21T04:56:07.418Z,81.80
2019-02-21T04:58:36.250Z,81.80
2019-02-21T05:01:05.158Z,81.80
2019-02-21T05:03:34.018Z,81.70
2019-02-21T05:06:02.865Z,82.00
2019-02-21T05:08:31.771Z,82.10
2019-02-21T05:11:00.619Z,82.30
2019-02-21T05:13:29.483Z,82.80
2019-02-21T05:15:58.381Z,82.60
2019-02-21T05:18:27.239Z,82.20
2019-02-21T05:20:56.088Z,82.50
2019-02-21T05:23:24.972Z,82.80
2019-02-21T05:25:53.819Z,82.90
2019-02-21T05:28:32.408Z,82.50
2019-02-21T05:31:02.828Z,81.60
2019-02-21T05:33:42.511Z,81.70
2019-02-21T05:36:21.958Z,81.70
2019-02-21T05:38:52.467Z,82.20
2019-02-21T05:41:28.854Z,82.20
2019-02-21T05:44:05.221Z,82.60
2019-02-21T05:46:44.644Z,82.20
2019-02-21T05:49:15.103Z,82.30
2019-02-21T05:51:48.597Z,82.00
2019-02-21T05:54:19.126Z,82.00
2019-02-21T05:56:52.735Z,81.30
2019-02-21T05:59:35.337Z,80.30
2019-02-21T06:02:08.505Z,79.90
2019-02-21T06:04:39.061Z,80.00
2019-02-21T06:07:12.351Z,80.40
2019-02-21T06:09:45.755Z,80.20
2019-02-21T06:12:33.980Z,80.10
2019-02-21T06:15:21.724Z,80.10
2019-02-21T06:17:52.233Z,80.00
2019-02-21T06:20:33.681Z,79.60
2019-02-21T06:23:10.310Z,79.00
2019-02-21T06:25:50.815Z,78.70
2019-02-21T06:28:13.108Z,78.70
2019-02-21T06:30:43.635Z,79.00
2019-02-21T06:33:12.527Z,79.50
2019-02-21T06:35:41.419Z,79.20
2019-02-21T06:38:10.394Z,79.10
2019-02-21T06:40:39.403Z,78.60
2019-02-21T06:43:14.651Z,78.50
2019-02-21T06:45:43.640Z,77.60
2019-02-21T06:48:12.520Z,77.20
2019-02-21T06:50:41.333Z,77.50
2019-02-21T06:53:10.228Z,77.60
2019-02-21T06:55:39.101Z,77.30
2019-02-21T06:58:07.961Z,77.10
2019-02-21T07:00:37.463Z,76.70
2019-02-21T07:03:15.358Z,76.10
2019-02-21T07:05:37.053Z,75.50
2019-02-21T07:08:05.997Z,75.70
2019-02-21T07:10:34.864Z,75.60
2019-02-21T07:13:03.670Z,75.40
2019-02-21T07:15:32.524Z,75.30
2019-02-21T07:18:01.425Z,74.50
2019-02-21T07:20:30.274Z,73.80
2019-02-21T07:22:59.146Z,73.20
2019-02-21T07:25:32.583Z,72.60
2019-02-21T07:28:11.378Z,72.20
2019-02-21T07:30:32.171Z,70.90
2019-02-21T07:33:01.017Z,71.10
2019-02-21T07:35:29.884Z,72.10
2019-02-21T07:37:58.759Z,71.50
2019-02-21T07:40:27.593Z,69.10
2019-02-21T07:42:58.594Z,67.20
2019-02-21T07:45:27.000Z,64.60
2019-02-21T07:47:55.954Z,61.60
2019-02-21T07:50:24.797Z,56.30
2019-02-21T07:53:01.916Z,55.10
2019-02-21T07:55:24.224Z,53.10
2019-02-21T07:57:53.087Z,51.60
2019-02-21T08:00:21.999Z,49.30
2019-02-21T08:02:50.867Z,47.00
2019-02-21T08:05:19.709Z,45.80
2019-02-21T08:07:49.876Z,43.80
2019-02-21T08:10:21.125Z,42.60
2019-02-21T08:12:53.479Z,42.00
2019-02-21T08:15:22.187Z,41.60
2019-02-21T08:17:51.066Z,41.70
2019-02-21T08:20:19.923Z,42.20
2019-02-21T08:22:48.821Z,42.40
2019-02-21T08:25:19.243Z,41.50
2019-02-21T08:27:48.148Z,41.40
2019-02-21T08:30:17.151Z,40.10
2019-02-21T08:33:04.092Z,39.70
2019-02-21T08:35:32.997Z,40.10
2019-02-21T08:38:01.866Z,39.70
2019-02-21T08:40:30.708Z,39.50
2019-02-21T08:42:59.616Z,37.70
2019-02-21T08:45:28.494Z,36.40
2019-02-21T08:47:57.331Z,35.10
2019-02-21T08:50:26.235Z,34.50
2019-02-21T08:52:55.118Z,34.50
2019-02-21T08:55:24.049Z,33.80
2019-02-21T08:57:52.960Z,33.30
2019-02-21T09:00:21.821Z,33.20
2019-02-21T09:02:50.673Z,33.10
2019-02-21T09:05:21.051Z,32.00
2019-02-21T09:07:49.928Z,31.50
2019-02-21T09:10:18.756Z,30.90
2019-02-21T09:12:48.641Z,30.30
2019-02-21T09:15:18.015Z,30.00
2019-02-21T09:17:46.874Z,30.50
2019-02-21T09:20:15.830Z,30.20
2019-02-21T09:22:44.696Z,31.10
2019-02-21T09:25:14.463Z,31.60
2019-02-21T09:27:43.356Z,31.40
2019-02-21T09:30:16.927Z,31.20
2019-02-21T09:32:45.796Z,30.80
2019-02-21T09:35:14.704Z,31.40
2019-02-21T09:37:43.551Z,32.10
2019-02-21T09:40:16.457Z,32.00
2019-02-21T09:42:45.409Z,31.60
2019-02-21T09:45:17.209Z,31.40
2019-02-21T09:47:46.071Z,30.60
2019-02-21T09:50:15.059Z,30.70
2019-02-21T09:52:43.925Z,30.80
2019-02-21T09:55:15.487Z,31.10
2019-02-21T09:57:44.461Z,31.50
2019-02-21T10:00:18.433Z,31.30
2019-02-21T10:02:47.293Z,31.20
2019-02-21T10:05:16.219Z,31.10
2019-02-21T10:07:45.074Z,31.10
2019-02-21T10:10:19.172Z,30.80
2019-02-21T10:12:48.058Z,30.90
2019-02-21T10:15:17.533Z,30.20
2019-02-21T10:17:46.360Z,30.00
2019-02-21T10:20:20.481Z,30.10
2019-02-21T10:22:49.323Z,32.70
2019-02-21T10:25:22.989Z,35.50
2019-02-21T10:27:51.155Z,38.20
2019-02-21T10:30:21.984Z,38.80
2019-02-21T10:32:50.930Z,39.00
2019-02-21T10:35:19.825Z,39.00
2019-02-21T10:37:48.760Z,37.80
2019-02-21T10:40:17.805Z,40.30
2019-02-21T10:42:46.824Z,36.80
2019-02-21T10:45:17.796Z,38.00
2019-02-21T10:47:46.639Z,38.40
2019-02-21T10:50:18.009Z,38.60
2019-02-21T10:52:46.846Z,38.10
2019-02-21T10:55:16.205Z,38.50
2019-02-21T10:57:45.630Z,39.40
2019-02-21T11:00:20.732Z,40.30
2019-02-21T11:02:49.744Z,40.90
2019-02-21T11:05:18.603Z,40.90
2019-02-21T11:07:47.443Z,41.30
2019-02-21T11:10:19.479Z,41.60
2019-02-21T11:12:48.433Z,41.10
2019-02-21T11:15:19.092Z,40.90
2019-02-21T11:17:47.970Z,40.20
2019-02-21T11:20:18.319Z,40.50
2019-02-21T11:22:47.175Z,40.70
2019-02-21T11:25:16.096Z,40.60
2019-02-21T11:27:44.962Z,40.40
2019-02-21T11:30:16.299Z,39.50
2019-02-21T11:32:45.187Z,39.10
2019-02-21T11:35:15.498Z,39.00
2019-02-21T11:37:46.760Z,39.00
2019-02-21T11:40:17.083Z,39.20
2019-02-21T11:42:46.083Z,39.30
2019-02-21T11:45:19.628Z,38.90
2019-02-21T11:47:48.537Z,39.00
2019-02-21T11:50:18.585Z,39.30
2019-02-21T11:52:47.525Z,39.70
2019-02-21T11:55:22.353Z,40.40
2019-02-21T11:57:51.197Z,41.00
2019-02-21T12:00:25.533Z,42.00
2019-02-21T12:02:54.426Z,42.50
2019-02-21T12:05:31.934Z,42.50
2019-02-21T12:07:54.457Z,41.80
2019-02-21T12:10:23.368Z,41.20
2019-02-21T12:12:52.210Z,41.60
2019-02-21T12:15:21.154Z,41.50
2019-02-21T12:17:50.075Z,41.10
2019-02-21T12:20:19.709Z,40.60
2019-02-21T12:22:48.572Z,40.40
2019-02-21T12:25:19.923Z,40.40
2019-02-21T12:27:49.153Z,40.10
2019-02-21T12:30:19.354Z,40.70
2019-02-21T12:32:48.347Z,39.80
2019-02-21T12:35:28.776Z,40.40
2019-02-21T12:37:47.651Z,40.30
2019-02-21T12:40:23.263Z,40.20
2019-02-21T12:42:52.123Z,40.10
2019-02-21T12:45:25.824Z,39.80
2019-02-21T12:47:54.742Z,39.80
2019-02-21T12:50:23.654Z,40.00
2019-02-21T12:52:52.531Z,39.60
2019-02-21T12:55:28.183Z,39.70
2019-02-21T12:57:51.927Z,39.90
2019-02-21T13:00:23.476Z,39.80
2019-02-21T13:02:52.406Z,39.80
2019-02-21T13:05:21.253Z,40.00
2019-02-21T13:07:50.212Z,39.60
2019-02-21T13:10:21.266Z,39.50
2019-02-21T13:12:50.127Z,39.90
2019-02-21T13:15:18.989Z,40.10
2019-02-21T13:17:47.888Z,40.30
2019-02-21T13:20:17.670Z,40.50
2019-02-21T13:22:46.535Z,40.40
2019-02-21T13:25:17.485Z,40.80
2019-02-21T13:27:46.317Z,41.10
2019-02-21T13:30:19.202Z,41.20
2019-02-21T13:32:48.057Z,40.90
2019-02-21T13:35:16.909Z,41.00
2019-02-21T13:37:45.798Z,40.80
2019-02-21T13:40:16.498Z,40.70
2019-02-21T13:42:57.547Z,40.20
2019-02-21T13:45:26.404Z,40.20
2019-02-21T13:47:55.238Z,40.60
2019-02-21T13:50:24.235Z,40.20
2019-02-21T13:52:53.074Z,39.90
2019-02-21T13:55:21.923Z,40.10
2019-02-21T13:57:50.818Z,40.10
2019-02-21T14:00:21.827Z,40.30
2019-02-21T14:02:50.666Z,39.90
2019-02-21T14:05:19.844Z,39.60
2019-02-21T14:07:48.685Z,39.80
2019-02-21T14:10:17.532Z,38.60
2019-02-21T14:12:46.446Z,38.20
2019-02-21T14:15:21.165Z,38.20
2019-02-21T14:17:50.059Z,37.90
2019-02-21T14:20:18.883Z,38.00
2019-02-21T14:22:47.775Z,37.90
2019-02-21T14:25:16.620Z,38.20
2019-02-21T14:27:45.472Z,38.20
2019-02-21T14:30:18.826Z,39.10
2019-02-21T14:32:47.841Z,38.50
2019-02-21T14:35:17.103Z,39.10
2019-02-21T14:37:45.941Z,38.90
2019-02-21T14:40:15.870Z,40.00
2019-02-21T14:42:44.688Z,39.10
2019-02-21T14:45:21.019Z,38.30
2019-02-21T14:47:49.886Z,37.60
2019-02-21T14:50:18.749Z,37.50
2019-02-21T14:52:47.638Z,37.50
2019-02-21T14:55:17.567Z,37.60
2019-02-21T14:57:46.518Z,37.10
2019-02-21T15:00:22.994Z,37.40
2019-02-21T15:02:51.860Z,36.60
2019-02-21T15:05:21.077Z,36.90
2019-02-21T15:07:50.132Z,36.80
2019-02-21T15:10:18.960Z,36.80
2019-02-21T15:12:47.899Z,37.20
2019-02-21T15:15:21.755Z,37.70
2019-02-21T15:17:49.686Z,37.80
2019-02-21T15:20:18.537Z,38.00
2019-02-21T15:22:47.460Z,37.90
2019-02-21T15:25:16.268Z,38.00
2019-02-21T15:27:45.129Z,38.20
2019-02-21T15:30:19.855Z,37.90
2019-02-21T15:32:49.220Z,38.70
2019-02-21T15:35:19.430Z,38.60
2019-02-21T15:37:48.602Z,39.00
2019-02-21T15:40:17.458Z,38.70
2019-02-21T15:42:46.305Z,38.70
2019-02-21T15:45:29.111Z,38.90
2019-02-21T15:47:57.964Z,41.40
2019-02-21T15:50:26.816Z,43.70
2019-02-21T15:52:57.039Z,41.20
2019-02-21T15:55:25.917Z,41.00
2019-02-21T15:58:03.324Z,40.80
2019-02-21T16:00:25.681Z,41.30
2019-02-21T16:02:54.528Z,38.10
2019-02-21T16:05:23.393Z,38.50
2019-02-21T16:07:52.308Z,38.90
2019-02-21T16:10:26.871Z,40.20
2019-02-21T16:12:56.419Z,41.50
2019-02-21T16:15:25.737Z,42.10
2019-02-21T16:17:54.576Z,42.70
2019-02-21T16:20:23.423Z,43.30
2019-02-21T16:22:52.346Z,43.90
2019-02-21T16:25:26.858Z,44.60
2019-02-21T16:27:55.857Z,45.00
2019-02-21T16:30:24.807Z,45.40
2019-02-21T16:32:53.640Z,45.20
2019-02-21T16:35:22.490Z,45.40
2019-02-21T16:37:51.407Z,45.90
2019-02-21T16:40:20.677Z,45.60
2019-02-21T16:42:49.519Z,45.70
2019-02-21T16:45:20.147Z,46.90
2019-02-21T16:47:48.988Z,47.90
2019-02-21T16:50:28.779Z,48.70
2019-02-21T16:52:48.415Z,49.10
2019-02-21T16:55:24.901Z,49.50
2019-02-21T16:58:13.485Z,50.10
2019-02-21T17:00:51.324Z,50.60
2019-02-21T17:03:12.878Z,51.80
2019-02-21T17:05:41.708Z,53.00
2019-02-21T17:08:10.616Z,53.20
2019-02-21T17:10:39.547Z,53.70
2019-02-21T17:13:08.444Z,54.00
2019-02-21T17:15:37.276Z,54.20
2019-02-21T17:18:06.178Z,54.60
2019-02-21T17:20:34.992Z,54.40
2019-02-21T17:23:03.830Z,54.60
2019-02-21T17:25:32.756Z,55.60
2019-02-21T17:28:01.559Z,55.90
2019-02-21T17:30:30.376Z,56.20
2019-02-21T17:32:59.264Z,56.60
2019-02-21T17:35:28.090Z,57.20
2019-02-21T17:37:56.957Z,58.20
2019-02-21T17:40:26.358Z,58.20
2019-02-21T17:42:55.230Z,58.30
2019-02-21T17:45:24.064Z,58.30
2019-02-21T17:47:52.986Z,58.40
2019-02-21T17:50:21.829Z,58.40
2019-02-21T17:52:50.666Z,58.40
2019-02-21T17:55:19.655Z,58.20
2019-02-21T17:57:49.758Z,58.40
2019-02-21T18:00:22.627Z,59.10
2019-02-21T18:02:51.554Z,59.60
2019-02-21T18:05:20.403Z,59.90
2019-02-21T18:07:49.251Z,60.20
2019-02-21T18:10:19.020Z,60.20
2019-02-21T18:12:47.906Z,60.30
2019-02-21T18:15:17.884Z,60.60
2019-02-21T18:17:46.770Z,60.80
2019-02-21T18:20:16.256Z,60.80
2019-02-21T18:22:45.685Z,61.00
2019-02-21T18:25:36.074Z,61.30
2019-02-21T18:28:04.915Z,62.20
2019-02-21T18:30:33.763Z,61.80
2019-02-21T18:33:02.684Z,62.40
2019-02-21T18:35:31.516Z,62.80
2019-02-21T18:38:00.384Z,63.00
2019-02-21T18:40:29.686Z,64.00
2019-02-21T18:42:58.509Z,63.50
2019-02-21T18:45:27.464Z,63.50
2019-02-21T18:47:56.474Z,63.60
2019-02-21T18:50:25.393Z,64.30
2019-02-21T18:52:57.527Z,64.60
2019-02-21T18:55:26.417Z,65.10
2019-02-21T18:57:55.371Z,65.70
2019-02-21T19:00:26.172Z,65.50
2019-02-21T19:02:55.252Z,65.80
2019-02-21T19:05:34.964Z,66.20
2019-02-21T19:08:00.871Z,66.60
2019-02-21T19:10:25.452Z,66.70
2019-02-21T19:12:54.300Z,66.70
2019-02-21T19:15:23.558Z,66.60
2019-02-21T19:17:52.477Z,66.80
2019-02-21T19:20:22.418Z,67.20
2019-02-21T19:22:51.273Z,67.50
2019-02-21T19:25:20.169Z,67.80
2019-02-21T19:27:49.014Z,67.90
2019-02-21T19:30:41.910Z,67.60
2019-02-21T19:33:10.753Z,67.50
2019-02-21T19:35:39.582Z,67.30
2019-02-21T19:38:10.803Z,67.40
2019-02-21T19:40:39.058Z,67.70
2019-02-21T19:43:07.899Z,68.00
2019-02-21T19:45:36.903Z,68.10
2019-02-21T19:48:05.759Z,68.40
2019-02-21T19:50:34.712Z,68.40
2019-02-21T19:53:03.621Z,68.40
2019-02-21T19:55:32.476Z,68.20
2019-02-21T19:58:01.386Z,68.30
2019-02-21T20:00:31.921Z,68.10
2019-02-21T20:03:01.205Z,68.30
2019-02-21T20:05:30.221Z,68.70
2019-02-21T20:08:08.264Z,68.60
2019-02-21T20:10:29.718Z,68.40
2019-02-21T20:13:03.025Z,68.10
2019-02-21T20:15:31.947Z,68.30
2019-02-21T20:18:00.821Z,68.20
2019-02-21T20:20:29.656Z,68.40
2019-02-21T20:22:58.554Z,68.80
2019-02-21T20:25:27.444Z,68.80
2019-02-21T20:27:56.316Z,68.80
2019-02-21T20:30:26.895Z,68.80
2019-02-21T20:32:55.745Z,68.80
2019-02-21T20:35:24.594Z,68.80
2019-02-21T20:37:53.588Z,69.30
2019-02-21T20:40:22.454Z,68.50
2019-02-21T20:42:51.325Z,68.40
2019-02-21T20:45:20.234Z,68.80
2019-02-21T20:47:49.104Z,69.20
2019-02-21T20:50:18.244Z,69.40
2019-02-21T20:52:47.138Z,69.60
2019-02-21T20:55:16.483Z,69.80
2019-02-21T20:57:45.348Z,69.90
2019-02-21T21:00:16.820Z,69.70
2019-02-21T21:02:45.656Z,70.00
2019-02-21T21:05:14.933Z,70.70
2019-02-21T21:07:43.956Z,70.30
2019-02-21T21:10:16.514Z,70.20
2019-02-21T21:12:45.360Z,70.20
2019-02-21T21:15:15.375Z,69.90
2019-02-21T21:17:45.761Z,69.70
2019-02-21T21:20:17.257Z,69.60
2019-02-21T21:22:46.528Z,69.80
2019-02-21T21:25:18.793Z,70.60
2019-02-21T21:27:49.207Z,70.20
2019-02-21T21:30:18.721Z,70.00
2019-02-21T21:32:47.552Z,69.90
2019-02-21T21:35:16.406Z,69.90
2019-02-21T21:37:45.283Z,70.00
2019-02-21T21:40:18.693Z,70.20
2019-02-21T21:42:47.553Z,70.10
2019-02-21T21:45:18.019Z,70.10
2019-02-21T21:47:46.894Z,70.40
2019-02-21T21:50:19.781Z,70.60
2019-02-21T21:52:48.676Z,70.80
2019-02-21T21:55:17.528Z,71.00
2019-02-21T21:57:46.409Z,71.30
2019-02-21T22:00:23.563Z,71.50
2019-02-21T22:02:53.068Z,71.80
2019-02-21T22:05:21.943Z,72.30
2019-02-21T22:07:51.469Z,72.60
2019-02-21T22:10:20.343Z,73.10
2019-02-21T22:12:49.298Z,72.90
2019-02-21T22:15:19.800Z,72.40
2019-02-21T22:17:48.647Z,72.20
2019-02-21T22:20:17.484Z,72.30
2019-02-21T22:22:47.539Z,72.40
2019-02-21T22:25:16.416Z,72.50
2019-02-21T22:27:45.253Z,72.40
2019-02-21T22:30:16.447Z,72.20
2019-02-21T22:32:45.303Z,72.00
2019-02-21T22:35:14.177Z,71.80
2019-02-21T22:37:43.169Z,72.10
2019-02-21T22:40:16.924Z,72.30
2019-02-21T22:42:45.758Z,72.60
2019-02-21T22:45:15.109Z,72.60
2019-02-21T22:47:43.968Z,72.10
2019-02-21T22:50:20.133Z,72.10
2019-02-21T22:52:49.032Z,72.00
2019-02-21T22:55:17.870Z,72.10
2019-02-21T22:57:46.770Z,72.20
2019-02-21T23:00:50.336Z,71.90
2019-02-21T23:03:19.295Z,71.60
2019-02-21T23:06:02.989Z,71.50
2019-02-21T23:08:40.720Z,71.50
2019-02-21T23:11:09.708Z,71.50
2019-02-21T23:13:38.553Z,71.50
2019-02-21T23:16:07.557Z,71.50
2019-02-21T23:18:36.476Z,71.50
2019-02-21T23:21:05.729Z,71.50
2019-02-21T23:23:34.720Z,71.40
2019-02-21T23:26:03.610Z,72.00
2019-02-21T23:28:32.455Z,72.00
2019-02-21T23:31:01.352Z,71.00
2019-02-21T23:33:31.613Z,70.60
2019-02-21T23:36:00.445Z,70.30
2019-02-21T23:38:29.552Z,70.50
2019-02-21T23:40:58.377Z,71.10
2019-02-21T23:43:27.179Z,71.80
2019-02-21T23:45:56.293Z,72.40
2019-02-21T23:48:25.105Z,72.70
2019-02-21T23:50:53.959Z,72.90
2019-02-21T23:53:22.843Z,73.00
2019-02-21T23:55:51.683Z,73.30
2019-02-21T23:58:20.552Z,74.10
